Qena, Egypt
Current Conditions -  °F | °C
As of 4:00 PM on Thursday 30 Oct 2014 (Local Time) from HELX Reporting Station
Clear Clear  
Wind Chill: 30°   Ceiling: Unl
Heat Index: 30°   Visibility: 6mi
Dew Point: 10°   Wind: 9mph
Humidity: 29%   Direction: 310°NW
Pressure: 29.88"   Gusts: NA
Location:  26.15°N, 32.72°E
Report Text: HELX 301400Z 31008KT CAVOK 30/10 Q1012 NOSIG
Loading
Personal Weather Stations






























Interactive Weather Map
Tropical Storm Tracking
New forecast layout! Learn more

10-Day Weather Forecast

Advertisements
Track Severe Weather on mobile